Aviation Digital Data Service (ADDS)

Output produced by METARs form (1303 UTC 19 February 2020)
found at http://aviationweather.gov/metar/data/
 
KASE 191124Z 1912/2012 15005KT P6SM SCT150 
     FM200000 VRB03KT P6SM VCSH BKN045 
     FM200300 VRB03KT P6SM VCSH BKN027 
     FM200500 00000KT P6SM BKN024 
     FM200600 00000KT P6SM BKN040